Marionville, Missouri
Current Conditions -  °F | °C
As of 7:31 PM on Saturday 22 Nov 2014 (Local Time) from KSGF Reporting Station
Scattered Clouds Scattered Clouds  
Wind Chill: 52°   Ceiling: Unl
Heat Index: 52°   Visibility: 10mi
Dew Point: 50°   Wind: 16mph
Humidity: 93%   Direction: 160°SSE
Pressure: 29.86"   Gusts: NA
Location:  37°N, 93.64°W
Report Text: KSGF 230131Z 16014KT 10SM SCT007 11/10 A2986 RMK AO2 T01110100
Loading
Personal Weather Stations






























Interactive Weather Map New forecast layout! Learn more

10-Day Weather Forecast

Advertisements
Track Severe Weather on mobile